sensor_id;sensor_type;location;lat;lon;timestamp;temperature;humidity
11772;DHT22;12556;55.748;13.194;2024-01-30T00:02:17;3.20;99.90
11772;DHT22;12556;55.748;13.194;2024-01-30T00:04:44;3.20;99.90
11772;DHT22;12556;55.748;13.194;2024-01-30T00:07:11;3.20;99.90
11772;DHT22;12556;55.748;13.194;2024-01-30T00:09:40;3.20;99.90
11772;DHT22;12556;55.748;13.194;2024-01-30T00:12:07;3.20;99.90
11772;DHT22;12556;55.748;13.194;2024-01-30T00:14:33;3.10;99.90
11772;DHT22;12556;55.748;13.194;2024-01-30T00:17:00;3.10;99.90
11772;DHT22;12556;55.748;13.194;2024-01-30T00:19:27;3.10;99.90
11772;DHT22;12556;55.748;13.194;2024-01-30T00:21:54;3.20;99.90
11772;DHT22;12556;55.748;13.194;2024-01-30T00:24:22;3.10;99.90
11772;DHT22;12556;55.748;13.194;2024-01-30T00:26:50;3.20;99.90
11772;DHT22;12556;55.748;13.194;2024-01-30T00:29:17;3.20;99.90
11772;DHT22;12556;55.748;13.194;2024-01-30T00:31:45;3.20;99.90
11772;DHT22;12556;55.748;13.194;2024-01-30T00:34:12;3.20;99.90
11772;DHT22;12556;55.748;13.194;2024-01-30T00:36:39;3.30;99.90
11772;DHT22;12556;55.748;13.194;2024-01-30T00:39:06;3.30;99.90
11772;DHT22;12556;55.748;13.194;2024-01-30T00:41:34;3.30;99.90
11772;DHT22;12556;55.748;13.194;2024-01-30T00:44:03;3.80;99.90
11772;DHT22;12556;55.748;13.194;2024-01-30T00:46:30;3.30;99.90
11772;DHT22;12556;55.748;13.194;2024-01-30T00:48:56;3.40;99.90
11772;DHT22;12556;55.748;13.194;2024-01-30T00:51:23;3.40;99.90
11772;DHT22;12556;55.748;13.194;2024-01-30T00:53:50;3.40;99.90
11772;DHT22;12556;55.748;13.194;2024-01-30T00:56:17;3.50;99.90
11772;DHT22;12556;55.748;13.194;2024-01-30T00:58:44;3.50;99.90
11772;DHT22;12556;55.748;13.194;2024-01-30T01:01:12;3.50;99.90
11772;DHT22;12556;55.748;13.194;2024-01-30T01:03:40;3.50;99.90
11772;DHT22;12556;55.748;13.194;2024-01-30T01:06:09;3.60;99.90
11772;DHT22;12556;55.748;13.194;2024-01-30T01:08:36;3.60;99.90
11772;DHT22;12556;55.748;13.194;2024-01-30T01:11:03;3.60;99.90
11772;DHT22;12556;55.748;13.194;2024-01-30T01:13:30;3.60;99.90
11772;DHT22;12556;55.748;13.194;2024-01-30T01:15:57;3.70;99.90
11772;DHT22;12556;55.748;13.194;2024-01-30T01:18:25;3.60;99.90
11772;DHT22;12556;55.748;13.194;2024-01-30T01:20:52;3.70;99.90
11772;DHT22;12556;55.748;13.194;2024-01-30T01:23:19;3.70;99.90
11772;DHT22;12556;55.748;13.194;2024-01-30T01:25:46;3.70;99.90
11772;DHT22;12556;55.748;13.194;2024-01-30T01:28:13;3.70;99.90
11772;DHT22;12556;55.748;13.194;2024-01-30T01:30:40;3.70;99.90
11772;DHT22;12556;55.748;13.194;2024-01-30T01:33:07;3.70;99.90
11772;DHT22;12556;55.748;13.194;2024-01-30T01:35:36;3.80;99.90
11772;DHT22;12556;55.748;13.194;2024-01-30T01:38:03;3.80;99.90
11772;DHT22;12556;55.748;13.194;2024-01-30T01:40:30;3.80;99.90
11772;DHT22;12556;55.748;13.194;2024-01-30T01:42:57;3.80;99.90
11772;DHT22;12556;55.748;13.194;2024-01-30T01:45:23;3.90;99.90
11772;DHT22;12556;55.748;13.194;2024-01-30T01:47:51;3.90;99.90
11772;DHT22;12556;55.748;13.194;2024-01-30T01:50:19;3.90;99.90
11772;DHT22;12556;55.748;13.194;2024-01-30T01:52:48;3.90;99.90
11772;DHT22;12556;55.748;13.194;2024-01-30T01:55:16;3.90;99.90
11772;DHT22;12556;55.748;13.194;2024-01-30T01:57:44;4.00;99.90
11772;DHT22;12556;55.748;13.194;2024-01-30T02:00:12;4.00;99.90
11772;DHT22;12556;55.748;13.194;2024-01-30T02:02:39;4.00;99.90
11772;DHT22;12556;55.748;13.194;2024-01-30T02:05:08;4.00;99.90
11772;DHT22;12556;55.748;13.194;2024-01-30T02:07:35;4.00;99.90
11772;DHT22;12556;55.748;13.194;2024-01-30T02:10:04;4.00;99.90
11772;DHT22;12556;55.748;13.194;2024-01-30T02:12:31;4.10;99.90
11772;DHT22;12556;55.748;13.194;2024-01-30T02:14:57;4.10;99.90
11772;DHT22;12556;55.748;13.194;2024-01-30T02:17:24;4.10;99.90
11772;DHT22;12556;55.748;13.194;2024-01-30T02:19:52;4.10;99.90
11772;DHT22;12556;55.748;13.194;2024-01-30T02:22:20;4.10;99.90
11772;DHT22;12556;55.748;13.194;2024-01-30T02:24:48;4.10;99.90
11772;DHT22;12556;55.748;13.194;2024-01-30T02:27:15;4.10;99.90
11772;DHT22;12556;55.748;13.194;2024-01-30T02:29:41;4.10;99.90
11772;DHT22;12556;55.748;13.194;2024-01-30T02:32:08;4.20;99.90
11772;DHT22;12556;55.748;13.194;2024-01-30T02:34:35;4.20;99.90
11772;DHT22;12556;55.748;13.194;2024-01-30T02:37:02;4.10;99.90
11772;DHT22;12556;55.748;13.194;2024-01-30T02:39:30;4.10;99.90
11772;DHT22;12556;55.748;13.194;2024-01-30T02:41:57;4.10;99.90
11772;DHT22;12556;55.748;13.194;2024-01-30T02:44:24;4.10;99.90
11772;DHT22;12556;55.748;13.194;2024-01-30T02:46:51;4.20;99.90
11772;DHT22;12556;55.748;13.194;2024-01-30T02:49:19;4.10;99.90
11772;DHT22;12556;55.748;13.194;2024-01-30T02:51:46;4.20;99.90
11772;DHT22;12556;55.748;13.194;2024-01-30T02:54:13;4.20;99.90
11772;DHT22;12556;55.748;13.194;2024-01-30T02:56:41;4.10;99.90
11772;DHT22;12556;55.748;13.194;2024-01-30T02:59:08;4.20;99.90
11772;DHT22;12556;55.748;13.194;2024-01-30T03:01:42;4.20;99.90
11772;DHT22;12556;55.748;13.194;2024-01-30T03:04:09;4.10;99.90
11772;DHT22;12556;55.748;13.194;2024-01-30T03:06:36;4.50;99.90
11772;DHT22;12556;55.748;13.194;2024-01-30T03:09:03;4.10;99.90
11772;DHT22;12556;55.748;13.194;2024-01-30T03:11:30;4.10;99.90
11772;DHT22;12556;55.748;13.194;2024-01-30T03:13:58;4.00;99.90
11772;DHT22;12556;55.748;13.194;2024-01-30T03:16:25;4.00;99.90
11772;DHT22;12556;55.748;13.194;2024-01-30T03:18:52;4.10;99.90
11772;DHT22;12556;55.748;13.194;2024-01-30T03:21:19;4.00;99.90
11772;DHT22;12556;55.748;13.194;2024-01-30T03:23:46;4.10;99.90
11772;DHT22;12556;55.748;13.194;2024-01-30T03:26:12;4.10;99.90
11772;DHT22;12556;55.748;13.194;2024-01-30T03:28:40;4.10;99.90
11772;DHT22;12556;55.748;13.194;2024-01-30T03:31:09;4.10;99.90
11772;DHT22;12556;55.748;13.194;2024-01-30T03:33:36;4.10;99.90
11772;DHT22;12556;55.748;13.194;2024-01-30T03:36:04;4.10;99.90
11772;DHT22;12556;55.748;13.194;2024-01-30T03:38:31;4.10;99.90
11772;DHT22;12556;55.748;13.194;2024-01-30T03:40:59;4.10;99.90
11772;DHT22;12556;55.748;13.194;2024-01-30T03:43:26;4.10;99.90
11772;DHT22;12556;55.748;13.194;2024-01-30T03:45:52;4.10;99.90
11772;DHT22;12556;55.748;13.194;2024-01-30T03:48:21;4.20;99.90
11772;DHT22;12556;55.748;13.194;2024-01-30T03:50:48;4.20;99.90
11772;DHT22;12556;55.748;13.194;2024-01-30T03:53:14;4.10;99.90
11772;DHT22;12556;55.748;13.194;2024-01-30T03:55:41;4.20;99.90
11772;DHT22;12556;55.748;13.194;2024-01-30T03:58:08;4.20;99.90
11772;DHT22;12556;55.748;13.194;2024-01-30T04:00:35;4.20;99.90
11772;DHT22;12556;55.748;13.194;2024-01-30T04:03:02;4.20;99.90
11772;DHT22;12556;55.748;13.194;2024-01-30T04:05:30;4.30;99.90
11772;DHT22;12556;55.748;13.194;2024-01-30T04:07:57;4.30;99.90
11772;DHT22;12556;55.748;13.194;2024-01-30T04:10:24;4.30;99.90
11772;DHT22;12556;55.748;13.194;2024-01-30T04:12:51;4.30;99.90
11772;DHT22;12556;55.748;13.194;2024-01-30T04:15:19;4.30;99.90
11772;DHT22;12556;55.748;13.194;2024-01-30T04:17:46;4.30;99.90
11772;DHT22;12556;55.748;13.194;2024-01-30T04:20:14;4.20;99.90
11772;DHT22;12556;55.748;13.194;2024-01-30T04:22:43;4.30;99.90
11772;DHT22;12556;55.748;13.194;2024-01-30T04:25:10;4.40;99.90
11772;DHT22;12556;55.748;13.194;2024-01-30T04:27:37;4.40;99.90
11772;DHT22;12556;55.748;13.194;2024-01-30T04:30:05;4.40;99.90
11772;DHT22;12556;55.748;13.194;2024-01-30T04:32:32;4.40;99.90
11772;DHT22;12556;55.748;13.194;2024-01-30T04:34:59;4.50;99.90
11772;DHT22;12556;55.748;13.194;2024-01-30T04:37:26;4.40;99.90
11772;DHT22;12556;55.748;13.194;2024-01-30T04:39:54;4.40;99.90
11772;DHT22;12556;55.748;13.194;2024-01-30T04:42:21;4.40;99.90
11772;DHT22;12556;55.748;13.194;2024-01-30T04:44:48;4.40;99.90
11772;DHT22;12556;55.748;13.194;2024-01-30T04:47:15;4.40;99.90
11772;DHT22;12556;55.748;13.194;2024-01-30T04:49:42;4.40;99.90
11772;DHT22;12556;55.748;13.194;2024-01-30T04:52:08;4.40;99.90
11772;DHT22;12556;55.748;13.194;2024-01-30T04:54:36;4.40;99.90
11772;DHT22;12556;55.748;13.194;2024-01-30T04:57:04;4.40;99.90
11772;DHT22;12556;55.748;13.194;2024-01-30T04:59:35;4.40;99.90
11772;DHT22;12556;55.748;13.194;2024-01-30T05:02:02;4.40;99.90
11772;DHT22;12556;55.748;13.194;2024-01-30T05:04:29;4.40;99.90
11772;DHT22;12556;55.748;13.194;2024-01-30T05:06:55;4.30;99.90
11772;DHT22;12556;55.748;13.194;2024-01-30T05:09:22;4.30;99.90
11772;DHT22;12556;55.748;13.194;2024-01-30T05:11:49;4.30;99.90
11772;DHT22;12556;55.748;13.194;2024-01-30T05:14:17;4.30;99.90
11772;DHT22;12556;55.748;13.194;2024-01-30T05:16:44;4.30;99.90
11772;DHT22;12556;55.748;13.194;2024-01-30T05:19:12;4.30;99.90
11772;DHT22;12556;55.748;13.194;2024-01-30T05:21:41;4.30;99.90
11772;DHT22;12556;55.748;13.194;2024-01-30T05:24:08;4.30;99.90
11772;DHT22;12556;55.748;13.194;2024-01-30T05:26:35;4.30;99.90
11772;DHT22;12556;55.748;13.194;2024-01-30T05:29:03;4.40;99.90
11772;DHT22;12556;55.748;13.194;2024-01-30T05:31:31;4.30;99.90
11772;DHT22;12556;55.748;13.194;2024-01-30T05:33:58;4.40;99.90
11772;DHT22;12556;55.748;13.194;2024-01-30T05:36:25;4.40;99.90
11772;DHT22;12556;55.748;13.194;2024-01-30T05:38:51;4.40;99.90
11772;DHT22;12556;55.748;13.194;2024-01-30T05:41:19;4.40;99.90
11772;DHT22;12556;55.748;13.194;2024-01-30T05:43:46;4.40;99.90
11772;DHT22;12556;55.748;13.194;2024-01-30T05:46:13;4.40;99.90
11772;DHT22;12556;55.748;13.194;2024-01-30T05:48:41;4.40;99.90
11772;DHT22;12556;55.748;13.194;2024-01-30T05:51:08;4.40;99.90
11772;DHT22;12556;55.748;13.194;2024-01-30T05:53:35;4.40;99.90
11772;DHT22;12556;55.748;13.194;2024-01-30T05:56:02;4.50;99.90
11772;DHT22;12556;55.748;13.194;2024-01-30T05:58:29;4.50;99.90
11772;DHT22;12556;55.748;13.194;2024-01-30T06:00:57;4.50;99.90
11772;DHT22;12556;55.748;13.194;2024-01-30T06:03:24;4.50;99.90
11772;DHT22;12556;55.748;13.194;2024-01-30T06:05:52;4.50;99.90
11772;DHT22;12556;55.748;13.194;2024-01-30T06:08:19;4.50;99.90
11772;DHT22;12556;55.748;13.194;2024-01-30T06:10:46;4.50;99.90
11772;DHT22;12556;55.748;13.194;2024-01-30T06:13:13;4.50;99.90
11772;DHT22;12556;55.748;13.194;2024-01-30T06:15:40;4.50;99.90
11772;DHT22;12556;55.748;13.194;2024-01-30T06:18:07;4.50;99.90
11772;DHT22;12556;55.748;13.194;2024-01-30T06:20:34;4.60;99.90
11772;DHT22;12556;55.748;13.194;2024-01-30T06:23:02;4.50;99.90
11772;DHT22;12556;55.748;13.194;2024-01-30T06:25:29;4.50;99.90
11772;DHT22;12556;55.748;13.194;2024-01-30T06:27:56;4.50;99.90
11772;DHT22;12556;55.748;13.194;2024-01-30T06:30:22;4.50;99.90
11772;DHT22;12556;55.748;13.194;2024-01-30T06:32:49;4.60;99.90
11772;DHT22;12556;55.748;13.194;2024-01-30T06:35:16;4.50;99.90
11772;DHT22;12556;55.748;13.194;2024-01-30T06:37:43;4.50;99.90
11772;DHT22;12556;55.748;13.194;2024-01-30T06:40:12;4.60;99.90
11772;DHT22;12556;55.748;13.194;2024-01-30T06:42:39;4.50;99.90
11772;DHT22;12556;55.748;13.194;2024-01-30T06:45:07;4.50;99.90
11772;DHT22;12556;55.748;13.194;2024-01-30T06:47:34;4.50;99.90
11772;DHT22;12556;55.748;13.194;2024-01-30T06:50:01;4.50;99.90
11772;DHT22;12556;55.748;13.194;2024-01-30T06:52:28;4.50;99.90
11772;DHT22;12556;55.748;13.194;2024-01-30T06:54:55;4.60;99.90
11772;DHT22;12556;55.748;13.194;2024-01-30T06:57:23;4.50;99.90
11772;DHT22;12556;55.748;13.194;2024-01-30T06:59:52;4.60;99.90
11772;DHT22;12556;55.748;13.194;2024-01-30T07:02:18;4.60;99.90
11772;DHT22;12556;55.748;13.194;2024-01-30T07:04:45;4.50;99.90
11772;DHT22;12556;55.748;13.194;2024-01-30T07:07:12;4.60;99.90
11772;DHT22;12556;55.748;13.194;2024-01-30T07:09:40;4.60;99.90
11772;DHT22;12556;55.748;13.194;2024-01-30T07:12:07;4.60;99.90
11772;DHT22;12556;55.748;13.194;2024-01-30T07:14:36;4.50;99.90
11772;DHT22;12556;55.748;13.194;2024-01-30T07:17:03;4.60;99.90
11772;DHT22;12556;55.748;13.194;2024-01-30T07:19:30;4.60;99.90
11772;DHT22;12556;55.748;13.194;2024-01-30T07:21:57;4.60;99.90
11772;DHT22;12556;55.748;13.194;2024-01-30T07:24:24;4.60;99.90
11772;DHT22;12556;55.748;13.194;2024-01-30T07:26:51;4.60;99.90
11772;DHT22;12556;55.748;13.194;2024-01-30T07:29:17;4.60;99.90
11772;DHT22;12556;55.748;13.194;2024-01-30T07:31:46;4.60;99.90
11772;DHT22;12556;55.748;13.194;2024-01-30T07:34:12;4.60;99.90
11772;DHT22;12556;55.748;13.194;2024-01-30T07:36:40;4.60;99.90
11772;DHT22;12556;55.748;13.194;2024-01-30T07:39:07;4.70;99.90
11772;DHT22;12556;55.748;13.194;2024-01-30T07:41:33;4.70;99.90
11772;DHT22;12556;55.748;13.194;2024-01-30T07:44:00;4.60;99.90
11772;DHT22;12556;55.748;13.194;2024-01-30T07:46:27;4.70;99.90
11772;DHT22;12556;55.748;13.194;2024-01-30T07:48:55;4.70;99.90
11772;DHT22;12556;55.748;13.194;2024-01-30T07:51:24;4.70;99.90
11772;DHT22;12556;55.748;13.194;2024-01-30T07:53:53;4.70;99.90
11772;DHT22;12556;55.748;13.194;2024-01-30T07:56:22;4.70;99.90
11772;DHT22;12556;55.748;13.194;2024-01-30T07:58:49;4.80;99.90
11772;DHT22;12556;55.748;13.194;2024-01-30T08:01:17;4.80;99.90
11772;DHT22;12556;55.748;13.194;2024-01-30T08:03:43;4.80;99.90
11772;DHT22;12556;55.748;13.194;2024-01-30T08:06:12;4.80;99.90
11772;DHT22;12556;55.748;13.194;2024-01-30T08:08:39;4.80;99.90
11772;DHT22;12556;55.748;13.194;2024-01-30T08:11:06;4.80;99.90
11772;DHT22;12556;55.748;13.194;2024-01-30T08:13:33;4.80;99.90
11772;DHT22;12556;55.748;13.194;2024-01-30T08:16:00;4.80;99.90
11772;DHT22;12556;55.748;13.194;2024-01-30T08:18:27;4.80;99.90
11772;DHT22;12556;55.748;13.194;2024-01-30T08:20:54;4.90;99.90
11772;DHT22;12556;55.748;13.194;2024-01-30T08:23:22;4.90;99.90
11772;DHT22;12556;55.748;13.194;2024-01-30T08:25:49;4.90;99.90
11772;DHT22;12556;55.748;13.194;2024-01-30T08:28:16;5.00;99.90
11772;DHT22;12556;55.748;13.194;2024-01-30T08:30:43;5.00;99.90
11772;DHT22;12556;55.748;13.194;2024-01-30T08:33:10;5.00;99.90
11772;DHT22;12556;55.748;13.194;2024-01-30T08:35:37;5.00;99.90
11772;DHT22;12556;55.748;13.194;2024-01-30T08:38:04;5.00;99.90
11772;DHT22;12556;55.748;13.194;2024-01-30T08:40:32;5.00;99.90
11772;DHT22;12556;55.748;13.194;2024-01-30T08:42:59;5.10;99.90
11772;DHT22;12556;55.748;13.194;2024-01-30T08:45:26;5.10;99.90
11772;DHT22;12556;55.748;13.194;2024-01-30T08:47:53;5.10;99.90
11772;DHT22;12556;55.748;13.194;2024-01-30T08:50:20;5.20;99.90
11772;DHT22;12556;55.748;13.194;2024-01-30T08:52:46;5.20;99.90
11772;DHT22;12556;55.748;13.194;2024-01-30T08:55:13;5.20;99.90
11772;DHT22;12556;55.748;13.194;2024-01-30T08:57:42;5.20;99.90
11772;DHT22;12556;55.748;13.194;2024-01-30T09:00:09;5.20;99.90
11772;DHT22;12556;55.748;13.194;2024-01-30T09:02:37;5.20;99.90
11772;DHT22;12556;55.748;13.194;2024-01-30T09:05:04;5.20;99.90
11772;DHT22;12556;55.748;13.194;2024-01-30T09:07:31;5.30;99.90
11772;DHT22;12556;55.748;13.194;2024-01-30T09:09:57;5.30;99.90
11772;DHT22;12556;55.748;13.194;2024-01-30T09:12:24;5.30;99.90
11772;DHT22;12556;55.748;13.194;2024-01-30T09:14:52;5.40;99.90
11772;DHT22;12556;55.748;13.194;2024-01-30T09:17:20;5.50;99.90
11772;DHT22;12556;55.748;13.194;2024-01-30T09:19:47;5.40;99.90
11772;DHT22;12556;55.748;13.194;2024-01-30T09:22:14;5.40;99.90
11772;DHT22;12556;55.748;13.194;2024-01-30T09:24:40;5.50;99.90
11772;DHT22;12556;55.748;13.194;2024-01-30T09:27:07;5.50;99.90
11772;DHT22;12556;55.748;13.194;2024-01-30T09:29:34;5.50;99.90
11772;DHT22;12556;55.748;13.194;2024-01-30T09:32:04;5.60;99.90
11772;DHT22;12556;55.748;13.194;2024-01-30T09:34:32;5.60;99.90
11772;DHT22;12556;55.748;13.194;2024-01-30T09:36:59;5.60;99.90
11772;DHT22;12556;55.748;13.194;2024-01-30T09:39:26;5.70;99.90
11772;DHT22;12556;55.748;13.194;2024-01-30T09:42:00;5.70;99.90
11772;DHT22;12556;55.748;13.194;2024-01-30T09:44:29;5.70;99.90
11772;DHT22;12556;55.748;13.194;2024-01-30T09:46:56;5.70;99.90
11772;DHT22;12556;55.748;13.194;2024-01-30T09:49:26;5.80;99.90
11772;DHT22;12556;55.748;13.194;2024-01-30T09:51:53;5.80;99.90
11772;DHT22;12556;55.748;13.194;2024-01-30T09:54:21;5.80;99.90
11772;DHT22;12556;55.748;13.194;2024-01-30T09:56:48;5.80;99.90
11772;DHT22;12556;55.748;13.194;2024-01-30T09:59:15;5.80;99.90
11772;DHT22;12556;55.748;13.194;2024-01-30T10:01:42;5.90;99.90
11772;DHT22;12556;55.748;13.194;2024-01-30T10:04:10;5.80;99.90
11772;DHT22;12556;55.748;13.194;2024-01-30T10:06:40;5.90;99.90
11772;DHT22;12556;55.748;13.194;2024-01-30T10:09:07;5.90;99.90
11772;DHT22;12556;55.748;13.194;2024-01-30T10:11:35;5.90;99.90
11772;DHT22;12556;55.748;13.194;2024-01-30T10:14:02;5.90;99.90
11772;DHT22;12556;55.748;13.194;2024-01-30T10:16:29;5.90;99.90
11772;DHT22;12556;55.748;13.194;2024-01-30T10:18:56;6.00;99.90
11772;DHT22;12556;55.748;13.194;2024-01-30T10:21:23;6.00;99.90
11772;DHT22;12556;55.748;13.194;2024-01-30T10:23:51;6.00;99.90
11772;DHT22;12556;55.748;13.194;2024-01-30T10:26:18;6.00;99.90
11772;DHT22;12556;55.748;13.194;2024-01-30T10:28:45;6.00;99.90
11772;DHT22;12556;55.748;13.194;2024-01-30T10:31:16;6.00;99.90
11772;DHT22;12556;55.748;13.194;2024-01-30T10:33:44;6.00;99.90
11772;DHT22;12556;55.748;13.194;2024-01-30T10:36:13;6.00;99.90
11772;DHT22;12556;55.748;13.194;2024-01-30T10:38:42;6.00;99.90
11772;DHT22;12556;55.748;13.194;2024-01-30T10:41:13;6.10;99.90
11772;DHT22;12556;55.748;13.194;2024-01-30T10:43:42;6.10;99.90
11772;DHT22;12556;55.748;13.194;2024-01-30T10:46:18;6.10;99.90
11772;DHT22;12556;55.748;13.194;2024-01-30T10:48:50;6.10;99.90
11772;DHT22;12556;55.748;13.194;2024-01-30T10:51:18;6.10;99.90
11772;DHT22;12556;55.748;13.194;2024-01-30T10:53:46;6.10;99.90
11772;DHT22;12556;55.748;13.194;2024-01-30T10:56:18;6.10;99.90
11772;DHT22;12556;55.748;13.194;2024-01-30T10:58:47;6.10;99.90
11772;DHT22;12556;55.748;13.194;2024-01-30T11:01:15;6.10;99.90
11772;DHT22;12556;55.748;13.194;2024-01-30T11:03:42;6.10;99.90
11772;DHT22;12556;55.748;13.194;2024-01-30T11:06:11;6.00;99.90
11772;DHT22;12556;55.748;13.194;2024-01-30T11:08:39;6.00;99.90
11772;DHT22;12556;55.748;13.194;2024-01-30T11:11:09;6.00;99.90
11772;DHT22;12556;55.748;13.194;2024-01-30T11:13:38;6.00;99.90
11772;DHT22;12556;55.748;13.194;2024-01-30T11:16:05;6.00;99.90
11772;DHT22;12556;55.748;13.194;2024-01-30T11:18:35;6.00;99.90
11772;DHT22;12556;55.748;13.194;2024-01-30T11:21:04;6.00;99.90
11772;DHT22;12556;55.748;13.194;2024-01-30T11:23:33;6.00;99.90
11772;DHT22;12556;55.748;13.194;2024-01-30T11:26:01;6.00;99.90
11772;DHT22;12556;55.748;13.194;2024-01-30T11:28:32;6.00;99.90
11772;DHT22;12556;55.748;13.194;2024-01-30T11:31:05;6.00;99.90
11772;DHT22;12556;55.748;13.194;2024-01-30T11:33:32;6.10;99.90
11772;DHT22;12556;55.748;13.194;2024-01-30T11:36:00;6.10;99.90
11772;DHT22;12556;55.748;13.194;2024-01-30T11:38:28;6.10;99.90
11772;DHT22;12556;55.748;13.194;2024-01-30T11:40:55;6.10;99.90
11772;DHT22;12556;55.748;13.194;2024-01-30T11:43:23;6.10;99.90
11772;DHT22;12556;55.748;13.194;2024-01-30T11:45:50;6.10;99.90
11772;DHT22;12556;55.748;13.194;2024-01-30T11:48:18;6.20;99.90
11772;DHT22;12556;55.748;13.194;2024-01-30T11:50:45;6.10;99.90
11772;DHT22;12556;55.748;13.194;2024-01-30T11:53:13;6.20;99.90
11772;DHT22;12556;55.748;13.194;2024-01-30T11:55:40;6.20;99.90
11772;DHT22;12556;55.748;13.194;2024-01-30T11:58:07;6.20;99.90
11772;DHT22;12556;55.748;13.194;2024-01-30T12:00:34;6.30;99.90
11772;DHT22;12556;55.748;13.194;2024-01-30T12:03:01;6.30;99.90
11772;DHT22;12556;55.748;13.194;2024-01-30T12:05:29;6.40;99.90
11772;DHT22;12556;55.748;13.194;2024-01-30T12:07:56;6.50;99.90
11772;DHT22;12556;55.748;13.194;2024-01-30T12:10:24;6.50;99.90
11772;DHT22;12556;55.748;13.194;2024-01-30T12:12:52;6.50;99.90
11772;DHT22;12556;55.748;13.194;2024-01-30T12:15:21;6.50;99.90
11772;DHT22;12556;55.748;13.194;2024-01-30T12:17:49;6.50;99.90
11772;DHT22;12556;55.748;13.194;2024-01-30T12:20:18;6.50;99.90
11772;DHT22;12556;55.748;13.194;2024-01-30T12:22:47;6.50;99.90
11772;DHT22;12556;55.748;13.194;2024-01-30T12:25:15;6.60;99.90
11772;DHT22;12556;55.748;13.194;2024-01-30T12:27:43;6.60;99.90
11772;DHT22;12556;55.748;13.194;2024-01-30T12:30:12;6.60;99.90
11772;DHT22;12556;55.748;13.194;2024-01-30T12:32:41;6.60;99.90
11772;DHT22;12556;55.748;13.194;2024-01-30T12:35:10;6.60;99.90
11772;DHT22;12556;55.748;13.194;2024-01-30T12:37:37;6.60;99.90
11772;DHT22;12556;55.748;13.194;2024-01-30T12:40:07;6.60;99.90
11772;DHT22;12556;55.748;13.194;2024-01-30T12:42:35;6.70;99.90
11772;DHT22;12556;55.748;13.194;2024-01-30T12:45:02;6.70;99.90
11772;DHT22;12556;55.748;13.194;2024-01-30T12:47:28;6.70;99.90
11772;DHT22;12556;55.748;13.194;2024-01-30T12:49:55;6.70;99.90
11772;DHT22;12556;55.748;13.194;2024-01-30T12:52:22;6.70;99.90
11772;DHT22;12556;55.748;13.194;2024-01-30T12:54:50;6.70;99.90
11772;DHT22;12556;55.748;13.194;2024-01-30T12:57:18;6.70;99.90
11772;DHT22;12556;55.748;13.194;2024-01-30T12:59:46;6.70;99.90
11772;DHT22;12556;55.748;13.194;2024-01-30T13:02:13;6.70;99.90
11772;DHT22;12556;55.748;13.194;2024-01-30T13:04:41;6.80;99.90
11772;DHT22;12556;55.748;13.194;2024-01-30T13:07:08;6.80;99.90
11772;DHT22;12556;55.748;13.194;2024-01-30T13:09:35;6.80;99.90
11772;DHT22;12556;55.748;13.194;2024-01-30T13:12:04;6.80;99.90
11772;DHT22;12556;55.748;13.194;2024-01-30T13:14:32;6.70;99.90
11772;DHT22;12556;55.748;13.194;2024-01-30T13:16:59;6.70;99.90
11772;DHT22;12556;55.748;13.194;2024-01-30T13:19:25;6.70;99.90
11772;DHT22;12556;55.748;13.194;2024-01-30T13:21:52;6.70;99.90
11772;DHT22;12556;55.748;13.194;2024-01-30T13:24:19;6.70;99.90
11772;DHT22;12556;55.748;13.194;2024-01-30T13:26:47;6.80;99.90
11772;DHT22;12556;55.748;13.194;2024-01-30T13:29:14;6.80;99.90
11772;DHT22;12556;55.748;13.194;2024-01-30T13:31:43;6.80;99.90
11772;DHT22;12556;55.748;13.194;2024-01-30T13:34:11;6.80;99.90
11772;DHT22;12556;55.748;13.194;2024-01-30T13:36:39;6.90;99.90
11772;DHT22;12556;55.748;13.194;2024-01-30T13:39:06;6.90;99.90
11772;DHT22;12556;55.748;13.194;2024-01-30T13:41:35;6.90;99.90
11772;DHT22;12556;55.748;13.194;2024-01-30T13:44:03;6.90;99.90
11772;DHT22;12556;55.748;13.194;2024-01-30T13:46:30;6.90;99.90
11772;DHT22;12556;55.748;13.194;2024-01-30T13:48:58;6.80;99.90
11772;DHT22;12556;55.748;13.194;2024-01-30T13:51:25;6.80;99.90
11772;DHT22;12556;55.748;13.194;2024-01-30T13:53:52;6.90;99.90
11772;DHT22;12556;55.748;13.194;2024-01-30T13:56:19;6.90;99.90
11772;DHT22;12556;55.748;13.194;2024-01-30T13:58:46;7.00;99.90
11772;DHT22;12556;55.748;13.194;2024-01-30T14:01:12;7.00;99.90
11772;DHT22;12556;55.748;13.194;2024-01-30T14:03:42;7.00;99.90
11772;DHT22;12556;55.748;13.194;2024-01-30T14:06:11;7.00;99.90
11772;DHT22;12556;55.748;13.194;2024-01-30T14:08:38;7.00;99.90
11772;DHT22;12556;55.748;13.194;2024-01-30T14:11:05;6.90;99.90
11772;DHT22;12556;55.748;13.194;2024-01-30T14:13:32;6.90;99.90
11772;DHT22;12556;55.748;13.194;2024-01-30T14:15:59;6.90;99.90
11772;DHT22;12556;55.748;13.194;2024-01-30T14:18:26;6.90;99.90
11772;DHT22;12556;55.748;13.194;2024-01-30T14:20:52;6.90;99.90
11772;DHT22;12556;55.748;13.194;2024-01-30T14:23:21;6.90;99.90
11772;DHT22;12556;55.748;13.194;2024-01-30T14:25:48;6.80;99.90
11772;DHT22;12556;55.748;13.194;2024-01-30T14:28:17;6.70;99.90
11772;DHT22;12556;55.748;13.194;2024-01-30T14:30:43;6.60;99.90
11772;DHT22;12556;55.748;13.194;2024-01-30T14:33:10;6.60;99.90
11772;DHT22;12556;55.748;13.194;2024-01-30T14:35:37;6.70;99.90
11772;DHT22;12556;55.748;13.194;2024-01-30T14:38:04;6.50;99.90
11772;DHT22;12556;55.748;13.194;2024-01-30T14:40:34;6.50;99.90
11772;DHT22;12556;55.748;13.194;2024-01-30T14:43:01;6.50;99.90
11772;DHT22;12556;55.748;13.194;2024-01-30T14:45:29;6.60;99.90
11772;DHT22;12556;55.748;13.194;2024-01-30T14:47:57;6.40;99.90
11772;DHT22;12556;55.748;13.194;2024-01-30T14:50:24;6.40;99.90
11772;DHT22;12556;55.748;13.194;2024-01-30T14:52:50;6.40;99.90
11772;DHT22;12556;55.748;13.194;2024-01-30T14:55:17;6.30;99.90
11772;DHT22;12556;55.748;13.194;2024-01-30T14:57:45;6.30;99.90
11772;DHT22;12556;55.748;13.194;2024-01-30T15:00:15;6.30;99.90
11772;DHT22;12556;55.748;13.194;2024-01-30T15:02:42;6.30;99.90
11772;DHT22;12556;55.748;13.194;2024-01-30T15:05:09;6.20;99.90
11772;DHT22;12556;55.748;13.194;2024-01-30T15:07:37;6.20;99.90
11772;DHT22;12556;55.748;13.194;2024-01-30T15:10:04;6.30;99.90
11772;DHT22;12556;55.748;13.194;2024-01-30T15:12:31;6.20;99.90
11772;DHT22;12556;55.748;13.194;2024-01-30T15:14:59;6.20;99.90
11772;DHT22;12556;55.748;13.194;2024-01-30T15:17:26;6.20;99.90
11772;DHT22;12556;55.748;13.194;2024-01-30T15:19:53;6.10;99.90
11772;DHT22;12556;55.748;13.194;2024-01-30T15:22:20;6.10;99.90
11772;DHT22;12556;55.748;13.194;2024-01-30T15:24:46;6.10;99.90
11772;DHT22;12556;55.748;13.194;2024-01-30T15:27:13;6.00;99.90
11772;DHT22;12556;55.748;13.194;2024-01-30T15:29:40;6.00;99.90
11772;DHT22;12556;55.748;13.194;2024-01-30T15:32:08;6.00;99.90